Time;durP1;ratioP1;P1;durP2;ratioP2;P2;SDS_P1;SDS_P2;PMS_P1;PMS_P2;Temp;Humidity;BMP_temperature;BMP_pressure;BME280_temperature;BME280_humidity;BME280_pressure;Samples;Min_cycle;Max_cycle;Signal;HPM_P1;HPM_P2
2021/08/13 00:01:20;0.00;0.00;0.62;0.00;0.00;0.62;8.90;7.57;;;30.00;33.40;;;;;;2253636;61;20383;-59
2021/08/13 00:04:05;0.00;0.00;0.62;0.00;0.00;0.62;8.77;7.53;;;30.00;33.50;;;;;;2253606;61;20472;-55
2021/08/13 00:06:50;0.00;0.00;0.62;0.00;0.00;0.62;7.50;6.80;;;29.90;33.40;;;;;;2254088;61;20740;-57
2021/08/13 00:09:36;0.00;0.00;0.62;0.00;0.00;0.62;8.50;7.80;;;29.90;33.40;;;;;;2253295;61;20364;-57
2021/08/13 00:12:20;0.00;0.00;0.62;0.00;0.00;0.62;8.00;7.30;;;29.90;33.60;;;;;;2253088;61;20419;-58
2021/08/13 00:15:06;0.00;0.00;0.62;0.00;0.00;0.62;9.37;7.60;;;29.90;33.60;;;;;;2253925;61;20715;-56
2021/08/13 00:17:54;0.00;0.00;0.62;0.00;0.00;0.62;7.43;6.73;;;29.90;33.60;;;;;;2253509;61;20384;-58
2021/08/13 00:20:39;0.00;0.00;0.62;0.00;0.00;0.62;7.83;7.13;;;29.90;33.60;;;;;;2253483;61;20396;-56
2021/08/13 00:23:24;0.00;0.00;0.62;0.00;0.00;0.62;8.43;7.27;;;29.90;33.60;;;;;;2253863;61;20386;-55
2021/08/13 00:26:08;0.00;0.00;0.62;0.00;0.00;0.62;8.17;6.77;;;29.90;33.60;;;;;;2253408;61;20403;-58
2021/08/13 00:28:53;0.00;0.00;0.62;0.00;0.00;0.62;8.00;7.30;;;29.90;33.60;;;;;;2253714;61;20367;-58
2021/08/13 00:31:38;0.00;0.00;0.62;0.00;0.00;0.62;7.97;7.20;;;29.80;33.50;;;;;;2255807;61;20376;-57
2021/08/13 00:34:25;0.00;0.00;0.62;0.00;0.00;0.62;10.97;8.57;;;29.90;33.60;;;;;;2255875;61;20356;-57
2021/08/13 00:37:10;0.00;0.00;0.62;0.00;0.00;0.62;9.27;8.37;;;29.80;33.50;;;;;;2253523;61;20376;-55
2021/08/13 00:39:56;0.00;0.00;0.62;0.00;0.00;0.62;9.27;8.00;;;29.80;33.50;;;;;;2255607;61;20399;-56
2021/08/13 00:42:40;0.00;0.00;0.62;0.00;0.00;0.62;8.77;7.87;;;29.80;33.50;;;;;;2255839;61;20379;-58
2021/08/13 00:45:25;0.00;0.00;0.62;0.00;0.00;0.62;12.10;8.43;;;29.70;33.40;;;;;;2256171;61;20403;-57
2021/08/13 00:48:38;0.00;0.00;0.62;0.00;0.00;0.62;9.03;7.40;;;29.70;33.40;;;;;;2253257;61;20359;-58
2021/08/13 00:51:44;0.00;0.00;0.62;0.00;0.00;0.62;9.53;8.10;;;29.60;33.40;;;;;;2253825;61;20382;-57
2021/08/13 00:54:30;0.00;0.00;0.62;0.00;0.00;0.62;8.83;7.97;;;29.60;33.60;;;;;;2255746;61;20728;-59
2021/08/13 00:57:15;0.00;0.00;0.62;0.00;0.00;0.62;9.97;8.90;;;29.60;33.60;;;;;;2255862;61;20745;-58
2021/08/13 01:00:28;0.00;0.00;0.62;0.00;0.00;0.62;8.90;8.10;;;29.50;33.60;;;;;;2253491;61;20355;-58
2021/08/13 01:03:14;0.00;0.00;0.62;0.00;0.00;0.62;9.20;8.33;;;29.50;33.60;;;;;;2255784;61;20387;-56
2021/08/13 01:06:02;0.00;0.00;0.62;0.00;0.00;0.62;8.40;7.17;;;29.40;33.70;;;;;;2256076;61;20747;-58
2021/08/13 01:08:51;0.00;0.00;0.62;0.00;0.00;0.62;8.50;7.70;;;29.40;33.70;;;;;;2255443;61;20363;-58
2021/08/13 01:11:46;0.00;0.00;0.62;0.00;0.00;0.62;8.10;7.30;;;29.30;33.80;;;;;;2255626;61;20382;-58
2021/08/13 01:14:51;0.00;0.00;0.62;0.00;0.00;0.62;7.80;7.10;;;29.30;33.90;;;;;;2256270;61;20359;-58
2021/08/13 01:17:44;0.00;0.00;0.62;0.00;0.00;0.62;8.23;7.43;;;29.30;33.90;;;;;;2255617;61;20600;-55
2021/08/13 01:21:05;0.00;0.00;0.62;0.00;0.00;0.62;8.50;7.70;;;29.30;34.00;;;;;;2256039;61;20355;-59
2021/08/13 01:23:55;0.00;0.00;0.62;0.00;0.00;0.62;8.73;7.83;;;29.30;34.10;;;;;;2255321;61;20651;-58
2021/08/13 01:26:50;0.00;0.00;0.62;0.00;0.00;0.62;7.93;7.13;;;29.30;34.10;;;;;;2255665;61;20383;-58
2021/08/13 01:29:45;0.00;0.00;0.62;0.00;0.00;0.62;10.23;8.00;;;29.20;34.20;;;;;;2256039;61;20355;-58
2021/08/13 01:32:40;0.00;0.00;0.62;0.00;0.00;0.62;8.90;8.00;;;29.20;34.10;;;;;;2255790;61;20419;-55
2021/08/13 01:35:30;0.00;0.00;0.62;0.00;0.00;0.62;9.60;8.70;;;29.20;34.20;;;;;;2256164;61;20380;-56
2021/08/13 01:38:21;0.00;0.00;0.62;0.00;0.00;0.62;10.70;7.93;;;29.20;34.20;;;;;;2255570;61;20367;-57
2021/08/13 01:41:12;0.00;0.00;0.62;0.00;0.00;0.62;8.63;7.83;;;29.20;34.30;;;;;;2255693;61;20431;-57
2021/08/13 01:44:00;0.00;0.00;0.62;0.00;0.00;0.62;8.80;7.30;;;29.20;34.20;;;;;;2255965;61;20392;-57
2021/08/13 01:46:47;0.00;0.00;0.62;0.00;0.00;0.62;9.10;8.20;;;29.20;34.30;;;;;;2255415;61;20443;-57
2021/08/13 01:49:34;0.00;0.00;0.62;0.00;0.00;0.62;9.50;8.60;;;29.20;35.00;;;;;;2255756;61;20670;-58
2021/08/13 01:52:19;0.00;0.00;0.62;0.00;0.00;0.62;9.27;8.30;;;29.20;34.30;;;;;;2253410;61;20387;-57
2021/08/13 01:55:05;0.00;0.00;0.62;0.00;0.00;0.62;9.20;8.27;;;29.20;34.50;;;;;;2253302;61;20371;-56
2021/08/13 01:57:52;0.00;0.00;0.62;0.00;0.00;0.62;10.60;8.33;;;29.20;34.50;;;;;;2253311;61;20566;-57
2021/08/13 02:00:37;0.00;0.00;0.62;0.00;0.00;0.62;9.27;8.47;;;29.20;34.50;;;;;;2255379;61;20379;-57
2021/08/13 02:03:22;0.00;0.00;0.62;0.00;0.00;0.62;9.67;7.70;;;29.20;34.50;;;;;;2255629;61;20360;-58
2021/08/13 02:06:10;0.00;0.00;0.62;0.00;0.00;0.62;11.17;8.73;;;29.10;34.40;;;;;;2253529;61;20388;-58
2021/08/13 02:08:55;0.00;0.00;0.62;0.00;0.00;0.62;9.17;7.53;;;29.10;34.50;;;;;;2255352;61;20399;-57
2021/08/13 02:11:49;0.00;0.00;0.62;0.00;0.00;0.62;8.50;7.60;;;29.10;34.50;;;;;;2256370;61;20427;-58
2021/08/13 02:14:37;0.00;0.00;0.62;0.00;0.00;0.62;13.30;7.43;;;29.10;35.30;;;;;;2256458;61;20732;-57
2021/08/13 02:17:23;0.00;0.00;0.62;0.00;0.00;0.62;8.50;7.23;;;29.10;34.60;;;;;;2256389;61;20395;-55
2021/08/13 02:20:11;0.00;0.00;0.62;0.00;0.00;0.62;8.50;7.73;;;29.10;34.70;;;;;;2256561;61;20562;-57
2021/08/13 02:22:58;0.00;0.00;0.62;0.00;0.00;0.62;8.20;7.40;;;29.10;34.70;;;;;;2256064;61;20407;-55
2021/08/13 02:25:45;0.00;0.00;0.62;0.00;0.00;0.62;8.50;7.70;;;29.00;34.60;;;;;;2256255;61;20383;-59
2021/08/13 02:28:30;0.00;0.00;0.62;0.00;0.00;0.62;8.80;7.17;;;29.00;34.60;;;;;;2256428;61;20411;-58
2021/08/13 02:31:17;0.00;0.00;0.62;0.00;0.00;0.62;9.23;8.37;;;29.00;34.60;;;;;;2256167;61;20371;-57
2021/08/13 02:34:01;0.00;0.00;0.62;0.00;0.00;0.62;11.17;8.87;;;29.00;34.60;;;;;;2256323;61;20443;-56
2021/08/13 02:37:00;0.00;0.00;0.62;0.00;0.00;0.62;9.07;8.10;;;29.00;34.70;;;;;;2256276;61;20553;-58
2021/08/13 02:39:50;0.00;0.00;0.62;0.00;0.00;0.62;8.03;7.33;;;29.00;34.70;;;;;;2256220;61;20403;-57
2021/08/13 02:42:40;0.00;0.00;0.62;0.00;0.00;0.62;8.37;7.57;;;29.00;34.80;;;;;;2254296;61;20380;-57
2021/08/13 02:45:26;0.00;0.00;0.62;0.00;0.00;0.62;9.50;8.53;;;29.00;34.80;;;;;;2255904;61;20360;-58
2021/08/13 02:48:18;0.00;0.00;0.62;0.00;0.00;0.62;8.37;7.53;;;29.00;34.70;;;;;;2256242;61;20356;-58
2021/08/13 02:51:08;0.00;0.00;0.62;0.00;0.00;0.62;7.87;7.10;;;29.00;34.70;;;;;;2256493;61;20384;-55
2021/08/13 02:53:57;0.00;0.00;0.62;0.00;0.00;0.62;8.20;7.50;;;28.90;34.70;;;;;;2256453;61;20399;-57
2021/08/13 02:56:45;0.00;0.00;0.62;0.00;0.00;0.62;8.13;7.40;;;28.90;34.60;;;;;;2256555;61;20363;-54
2021/08/13 02:59:34;0.00;0.00;0.62;0.00;0.00;0.62;9.00;7.87;;;29.00;34.70;;;;;;2255910;61;20573;-57
2021/08/13 03:02:20;0.00;0.00;0.62;0.00;0.00;0.62;8.83;7.97;;;29.00;34.70;;;;;;2256186;61;20400;-57
2021/08/13 03:05:10;0.00;0.00;0.62;0.00;0.00;0.62;8.83;8.03;;;28.90;34.60;;;;;;2256353;61;20384;-58
2021/08/13 03:07:57;0.00;0.00;0.62;0.00;0.00;0.62;8.60;7.80;;;28.90;34.70;;;;;;2256017;61;20379;-56
2021/08/13 03:10:42;0.00;0.00;0.62;0.00;0.00;0.62;8.97;8.10;;;28.90;34.70;;;;;;2253543;61;20385;-58
2021/08/13 03:13:31;0.00;0.00;0.62;0.00;0.00;0.62;9.03;8.23;;;28.80;34.70;;;;;;2256556;61;20433;-58
2021/08/13 03:16:17;0.00;0.00;0.62;0.00;0.00;0.62;9.60;8.80;;;28.80;34.80;;;;;;2256130;61;20356;-57
2021/08/13 03:19:08;0.00;0.00;0.62;0.00;0.00;0.62;9.77;8.47;;;28.80;34.80;;;;;;2256365;61;20375;-58
2021/08/13 03:21:54;0.00;0.00;0.62;0.00;0.00;0.62;8.90;8.00;;;28.80;34.90;;;;;;2255792;61;20419;-58
2021/08/13 03:24:39;0.00;0.00;0.62;0.00;0.00;0.62;9.50;8.43;;;28.70;34.80;;;;;;2255959;61;20411;-57
2021/08/13 03:27:25;0.00;0.00;0.62;0.00;0.00;0.62;8.47;7.73;;;28.70;34.90;;;;;;2256391;61;20387;-58
2021/08/13 03:30:13;0.00;0.00;0.62;0.00;0.00;0.62;9.03;8.20;;;28.70;35.10;;;;;;2255922;61;20368;-58
2021/08/13 03:32:59;0.00;0.00;0.62;0.00;0.00;0.62;9.90;8.90;;;28.60;35.00;;;;;;2256166;61;20423;-59
2021/08/13 03:35:44;0.00;0.00;0.62;0.00;0.00;0.62;12.20;8.77;;;28.60;35.00;;;;;;2256464;61;20653;-56
2021/08/13 03:38:29;0.00;0.00;0.62;0.00;0.00;0.62;9.90;8.50;;;28.60;35.10;;;;;;2255760;61;20385;-56
2021/08/13 03:41:17;0.00;0.00;0.62;0.00;0.00;0.62;9.27;8.00;;;28.60;35.20;;;;;;2256395;61;20435;-57
2021/08/13 03:44:03;0.00;0.00;0.62;0.00;0.00;0.62;10.80;7.80;;;28.60;35.10;;;;;;2255837;61;20391;-57
2021/08/13 03:46:49;0.00;0.00;0.62;0.00;0.00;0.62;8.67;7.87;;;28.60;35.20;;;;;;2255911;61;20427;-58
2021/08/13 03:49:34;0.00;0.00;0.62;0.00;0.00;0.62;8.87;8.13;;;28.60;35.20;;;;;;2256253;61;20364;-58
2021/08/13 03:52:19;0.00;0.00;0.62;0.00;0.00;0.62;11.70;8.47;;;28.60;35.20;;;;;;2255825;61;20743;-58
2021/08/13 03:55:06;0.00;0.00;0.62;0.00;0.00;0.62;8.10;7.30;;;28.60;35.20;;;;;;2256045;61;20380;-56
2021/08/13 03:57:53;0.00;0.00;0.62;0.00;0.00;0.62;8.50;7.70;;;28.60;35.30;;;;;;2256416;61;20391;-58
2021/08/13 04:00:37;0.00;0.00;0.62;0.00;0.00;0.62;8.67;7.87;;;28.60;35.20;;;;;;2255771;61;20384;-58
2021/08/13 04:03:24;0.00;0.00;0.62;0.00;0.00;0.62;8.83;8.03;;;28.60;35.30;;;;;;2253936;61;20404;-58
2021/08/13 04:06:09;0.00;0.00;0.62;0.00;0.00;0.62;9.60;8.60;;;28.60;35.30;;;;;;2255723;61;20818;-57
2021/08/13 04:08:56;0.00;0.00;0.62;0.00;0.00;0.62;8.43;7.53;;;28.60;35.30;;;;;;2255803;61;20655;-57
2021/08/13 04:11:41;0.00;0.00;0.62;0.00;0.00;0.62;9.63;8.73;;;28.60;35.40;;;;;;2254053;61;20395;-55
2021/08/13 04:14:27;0.00;0.00;0.62;0.00;0.00;0.62;9.30;8.50;;;28.50;35.30;;;;;;2255828;61;20635;-57
2021/08/13 04:17:13;0.00;0.00;0.62;0.00;0.00;0.62;9.60;8.60;;;28.50;35.40;;;;;;2255995;61;20457;-57
2021/08/13 04:19:59;0.00;0.00;0.62;0.00;0.00;0.62;9.57;8.50;;;28.50;35.40;;;;;;2253886;61;20613;-57
2021/08/13 04:22:44;0.00;0.00;0.62;0.00;0.00;0.62;11.83;8.63;;;28.50;35.50;;;;;;2256075;61;20367;-59
2021/08/13 04:25:29;0.00;0.00;0.62;0.00;0.00;0.62;12.43;8.17;;;28.40;35.40;;;;;;2253873;61;20371;-56
2021/08/13 04:28:15;0.00;0.00;0.62;0.00;0.00;0.62;10.00;8.43;;;28.50;35.60;;;;;;2255650;61;20356;-58
2021/08/13 04:31:00;0.00;0.00;0.62;0.00;0.00;0.62;9.40;8.40;;;28.40;35.50;;;;;;2255958;61;20382;-59
2021/08/13 04:33:46;0.00;0.00;0.62;0.00;0.00;0.62;9.40;8.47;;;28.40;35.50;;;;;;2256313;61;20788;-53
2021/08/13 04:36:36;0.00;0.00;0.62;0.00;0.00;0.62;7.73;7.03;;;28.40;35.40;;;;;;2255712;61;20392;-56
2021/08/13 04:39:22;0.00;0.00;0.62;0.00;0.00;0.62;8.67;7.80;;;28.40;35.40;;;;;;2255725;61;20692;-53
2021/08/13 04:42:07;0.00;0.00;0.62;0.00;0.00;0.62;9.00;8.10;;;28.40;35.40;;;;;;2256200;61;20387;-53
2021/08/13 04:44:52;0.00;0.00;0.62;0.00;0.00;0.62;8.00;6.90;;;28.40;35.40;;;;;;2255703;61;20363;-52
2021/08/13 04:47:38;0.00;0.00;0.62;0.00;0.00;0.62;8.60;7.37;;;28.40;35.40;;;;;;2256236;61;20434;-57
2021/08/13 04:50:23;0.00;0.00;0.62;0.00;0.00;0.62;9.30;8.37;;;28.40;35.50;;;;;;2255473;61;20434;-55
2021/08/13 04:53:16;0.00;0.00;0.62;0.00;0.00;0.62;11.07;8.10;;;28.40;35.40;;;;;;2253122;61;20407;-58
2021/08/13 04:56:01;0.00;0.00;0.62;0.00;0.00;0.62;8.73;7.77;;;28.40;35.40;;;;;;2256183;61;20472;-51
2021/08/13 04:58:49;0.00;0.00;0.62;0.00;0.00;0.62;8.43;7.53;;;28.50;35.50;;;;;;2255521;61;20582;-54
2021/08/13 05:01:47;0.00;0.00;0.62;0.00;0.00;0.62;8.37;6.40;;;28.50;35.50;;;;;;2255964;61;20371;-57
2021/08/13 05:04:31;0.00;0.00;0.62;0.00;0.00;0.62;7.93;7.23;;;28.50;35.50;;;;;;2253671;61;20775;-56
2021/08/13 05:07:17;0.00;0.00;0.62;0.00;0.00;0.62;7.07;6.37;;;28.50;35.50;;;;;;2255620;61;20712;-57
2021/08/13 05:10:08;0.00;0.00;0.62;0.00;0.00;0.62;7.80;6.80;;;28.50;35.40;;;;;;2253723;61;20731;-56
2021/08/13 05:12:55;0.00;0.00;0.62;0.00;0.00;0.62;7.90;6.53;;;28.50;35.50;;;;;;2253324;61;20364;-54
2021/08/13 05:15:40;0.00;0.00;0.62;0.00;0.00;0.62;7.33;6.63;;;28.50;35.40;;;;;;2255976;61;20410;-57
2021/08/13 05:18:25;0.00;0.00;0.62;0.00;0.00;0.62;7.73;6.73;;;28.50;35.50;;;;;;2256094;61;20436;-57
2021/08/13 05:21:09;0.00;0.00;0.62;0.00;0.00;0.62;8.77;6.93;;;28.50;35.40;;;;;;2255488;61;20775;-58
2021/08/13 05:23:54;0.00;0.00;0.62;0.00;0.00;0.62;8.13;7.33;;;28.60;35.50;;;;;;2255552;61;20380;-54
2021/08/13 05:26:41;0.00;0.00;0.62;0.00;0.00;0.62;10.50;7.60;;;28.60;35.40;;;;;;2253673;61;20383;-56
2021/08/13 05:29:25;0.00;0.00;0.62;0.00;0.00;0.62;8.90;6.90;;;28.60;35.40;;;;;;2252845;61;20360;-56
2021/08/13 05:32:10;0.00;0.00;0.62;0.00;0.00;0.62;14.20;8.33;;;28.50;35.30;;;;;;2256030;61;20375;-55
2021/08/13 05:34:55;0.00;0.00;0.62;0.00;0.00;0.62;8.20;7.40;;;28.50;35.20;;;;;;2255571;61;20359;-55
2021/08/13 05:37:41;0.00;0.00;0.62;0.00;0.00;0.62;8.70;7.40;;;28.50;35.20;;;;;;2255837;61;20402;-55
2021/08/13 05:40:28;0.00;0.00;0.62;0.00;0.00;0.62;8.40;7.60;;;28.40;35.20;;;;;;2255800;61;20432;-57
2021/08/13 05:43:14;0.00;0.00;0.62;0.00;0.00;0.62;11.30;8.03;;;28.40;35.10;;;;;;2252861;61;20391;-57
2021/08/13 05:46:00;0.00;0.00;0.62;0.00;0.00;0.62;12.30;7.30;;;28.40;35.20;;;;;;2253543;61;20651;-57
2021/08/13 05:48:45;0.00;0.00;0.62;0.00;0.00;0.62;9.40;7.43;;;28.30;35.20;;;;;;2253807;61;20392;-57
2021/08/13 05:51:30;0.00;0.00;0.62;0.00;0.00;0.62;10.23;7.70;;;28.30;35.20;;;;;;2256587;61;20660;-54
2021/08/13 05:54:15;0.00;0.00;0.62;0.00;0.00;0.62;10.03;7.87;;;28.30;35.30;;;;;;2256637;61;20383;-56
2021/08/13 05:57:03;0.00;0.00;0.62;0.00;0.00;0.62;11.00;7.87;;;28.20;35.40;;;;;;2256268;61;20355;-56
2021/08/13 05:59:48;0.00;0.00;0.62;0.00;0.00;0.62;11.37;7.40;;;28.20;35.40;;;;;;2253537;61;20367;-52
2021/08/13 06:02:35;0.00;0.00;0.62;0.00;0.00;0.62;9.47;8.33;;;28.10;35.40;;;;;;2256654;61;20388;-53
2021/08/13 06:05:22;0.00;0.00;0.62;0.00;0.00;0.62;13.00;7.80;;;28.10;35.50;;;;;;2256139;61;20729;-53
2021/08/13 06:08:07;0.00;0.00;0.62;0.00;0.00;0.62;9.70;7.80;;;28.10;35.50;;;;;;2256222;61;20359;-50
2021/08/13 06:10:52;0.00;0.00;0.62;0.00;0.00;0.62;13.30;8.33;;;28.00;35.50;;;;;;2256718;61;20655;-54
2021/08/13 06:13:37;0.00;0.00;0.62;0.00;0.00;0.62;9.83;7.97;;;28.00;35.60;;;;;;2256303;61;20360;-56
2021/08/13 06:16:23;0.00;0.00;0.62;0.00;0.00;0.62;8.90;7.43;;;28.00;35.60;;;;;;2256649;61;20716;-53
2021/08/13 06:19:08;0.00;0.00;0.62;0.00;0.00;0.62;14.23;7.67;;;27.90;35.60;;;;;;2256161;61;20724;-54
2021/08/13 06:21:54;0.00;0.00;0.62;0.00;0.00;0.62;10.37;7.60;;;27.90;35.80;;;;;;2255977;61;20548;-54
2021/08/13 06:24:38;0.00;0.00;0.62;0.00;0.00;0.62;8.03;7.30;;;27.80;35.70;;;;;;2256544;61;20371;-53
2021/08/13 06:27:26;0.00;0.00;0.62;0.00;0.00;0.62;11.37;7.70;;;27.80;35.80;;;;;;2256239;61;20392;-55
2021/08/13 06:30:13;0.00;0.00;0.62;0.00;0.00;0.62;8.67;7.63;;;27.80;35.90;;;;;;2256045;61;20431;-55
2021/08/13 06:33:00;0.00;0.00;0.62;0.00;0.00;0.62;13.70;7.70;;;27.80;36.00;;;;;;2256746;61;20364;-56
2021/08/13 06:35:46;0.00;0.00;0.62;0.00;0.00;0.62;9.90;8.07;;;27.80;36.00;;;;;;2256053;61;20371;-55
2021/08/13 06:38:32;0.00;0.00;0.62;0.00;0.00;0.62;9.43;7.93;;;27.70;36.00;;;;;;2256526;61;20479;-56
2021/08/13 06:41:16;0.00;0.00;0.62;0.00;0.00;0.62;9.10;7.50;;;27.70;36.10;;;;;;2256147;61;20406;-56
2021/08/13 06:44:20;0.00;0.00;0.62;0.00;0.00;0.62;8.70;6.90;;;27.70;36.20;;;;;;2253697;61;20367;-53
2021/08/13 06:47:05;0.00;0.00;0.62;0.00;0.00;0.62;9.73;7.40;;;27.70;36.20;;;;;;2254220;61;20383;-55
2021/08/13 06:49:50;0.00;0.00;0.62;0.00;0.00;0.62;10.30;8.07;;;27.70;36.30;;;;;;2253435;61;20364;-57
2021/08/13 06:52:35;0.00;0.00;0.62;0.00;0.00;0.62;8.77;7.17;;;27.60;36.30;;;;;;2253436;61;20379;-54
2021/08/13 06:55:20;0.00;0.00;0.62;0.00;0.00;0.62;8.40;7.53;;;27.60;36.40;;;;;;2256616;61;20364;-53
2021/08/13 06:58:10;0.00;0.00;0.62;0.00;0.00;0.62;8.30;7.17;;;27.60;36.40;;;;;;2255953;61;20383;-54
2021/08/13 07:00:59;0.00;0.00;0.62;0.00;0.00;0.62;9.90;6.57;;;27.70;36.50;;;;;;2256565;61;20455;-54
2021/08/13 07:03:44;0.00;0.00;0.62;0.00;0.00;0.62;7.97;7.17;;;27.60;36.50;;;;;;2255925;61;20846;-54
2021/08/13 07:06:30;0.00;0.00;0.62;0.00;0.00;0.62;10.07;7.60;;;27.60;36.50;;;;;;2255990;61;20444;-54
2021/08/13 07:09:15;0.00;0.00;0.62;0.00;0.00;0.62;7.70;6.83;;;27.60;36.60;;;;;;2256474;61;20435;-57
2021/08/13 07:11:59;0.00;0.00;0.62;0.00;0.00;0.62;10.57;7.80;;;27.60;36.60;;;;;;2253368;61;20424;-54
2021/08/13 07:14:44;0.00;0.00;0.62;0.00;0.00;0.62;7.93;7.13;;;27.60;36.70;;;;;;2253835;61;20615;-55
2021/08/13 07:17:29;0.00;0.00;0.62;0.00;0.00;0.62;8.37;7.27;;;27.60;36.70;;;;;;2254232;61;20387;-54
2021/08/13 07:20:13;0.00;0.00;0.62;0.00;0.00;0.62;9.30;7.70;;;27.60;36.70;;;;;;2255857;61;20376;-55
2021/08/13 07:23:00;0.00;0.00;0.62;0.00;0.00;0.62;8.80;6.80;;;27.60;36.70;;;;;;2256410;61;20360;-55
2021/08/13 07:25:44;0.00;0.00;0.62;0.00;0.00;0.62;10.17;8.20;;;27.60;36.80;;;;;;2255672;61;20446;-56
2021/08/13 07:28:29;0.00;0.00;0.62;0.00;0.00;0.62;8.40;7.50;;;27.60;36.80;;;;;;2253214;61;20407;-55
2021/08/13 07:31:14;0.00;0.00;0.62;0.00;0.00;0.62;8.97;8.07;;;27.60;36.80;;;;;;2256562;61;20375;-54
2021/08/13 07:34:07;0.00;0.00;0.62;0.00;0.00;0.62;8.80;7.90;;;27.70;36.90;;;;;;2255827;61;20779;-55
2021/08/13 07:36:52;0.00;0.00;0.62;0.00;0.00;0.62;8.43;7.37;;;27.60;36.90;;;;;;2253315;61;20355;-52
2021/08/13 07:39:39;0.00;0.00;0.62;0.00;0.00;0.62;7.63;6.80;;;27.70;37.00;;;;;;2256334;61;20586;-53
2021/08/13 07:42:26;0.00;0.00;0.62;0.00;0.00;0.62;8.90;8.00;;;27.70;37.00;;;;;;2256082;61;20639;-57
2021/08/13 07:45:12;0.00;0.00;0.62;0.00;0.00;0.62;8.77;7.50;;;27.70;37.00;;;;;;2256401;61;20368;-57
2021/08/13 07:47:57;0.00;0.00;0.62;0.00;0.00;0.62;9.40;7.60;;;27.70;37.10;;;;;;2255647;61;20467;-57
2021/08/13 07:50:42;0.00;0.00;0.62;0.00;0.00;0.62;9.80;7.30;;;27.80;37.40;;;;;;2253588;61;20761;-57
2021/08/13 07:53:26;0.00;0.00;0.62;0.00;0.00;0.62;10.37;7.57;;;27.80;37.50;;;;;;2254042;61;20359;-57
2021/08/13 07:56:13;0.00;0.00;0.62;0.00;0.00;0.62;8.70;7.90;;;27.80;37.50;;;;;;2253051;61;20352;-58
2021/08/13 07:58:57;0.00;0.00;0.62;0.00;0.00;0.62;9.30;8.40;;;27.80;37.40;;;;;;2253602;61;20363;-56
2021/08/13 08:01:42;0.00;0.00;0.62;0.00;0.00;0.62;8.20;7.40;;;27.90;37.50;;;;;;2256196;61;20388;-52
2021/08/13 08:04:27;0.00;0.00;0.62;0.00;0.00;0.62;8.00;7.20;;;27.90;37.50;;;;;;2253436;61;20363;-57
2021/08/13 08:07:12;0.00;0.00;0.62;0.00;0.00;0.62;9.03;8.17;;;27.90;37.30;;;;;;2253792;61;20598;-57
2021/08/13 08:09:56;0.00;0.00;0.62;0.00;0.00;0.62;7.63;6.57;;;28.00;37.30;;;;;;2253336;61;20360;-57
2021/08/13 08:12:42;0.00;0.00;0.62;0.00;0.00;0.62;7.53;6.77;;;28.00;37.10;;;;;;2253680;61;20415;-56
2021/08/13 08:15:27;0.00;0.00;0.62;0.00;0.00;0.62;8.10;7.30;;;28.00;37.10;;;;;;2253911;61;20360;-56
2021/08/13 08:18:12;0.00;0.00;0.62;0.00;0.00;0.62;7.20;6.43;;;28.00;37.00;;;;;;2253445;61;20411;-58
2021/08/13 08:20:56;0.00;0.00;0.62;0.00;0.00;0.62;7.47;6.67;;;28.10;37.10;;;;;;2253577;61;20391;-55
2021/08/13 08:23:41;0.00;0.00;0.62;0.00;0.00;0.62;6.53;5.93;;;28.10;37.10;;;;;;2253720;61;20359;-57
2021/08/13 08:26:25;0.00;0.00;0.62;0.00;0.00;0.62;7.03;6.33;;;28.10;37.00;;;;;;2253342;61;20383;-58
2021/08/13 08:29:11;0.00;0.00;0.62;0.00;0.00;0.62;6.87;6.10;;;28.20;37.00;;;;;;2253454;61;20359;-59
2021/08/13 08:31:56;0.00;0.00;0.62;0.00;0.00;0.62;7.70;7.00;;;28.30;37.00;;;;;;2253517;61;20599;-58
2021/08/13 08:34:41;0.00;0.00;0.62;0.00;0.00;0.62;7.10;6.40;;;28.30;36.90;;;;;;2253588;61;20372;-57
2021/08/13 08:37:25;0.00;0.00;0.62;0.00;0.00;0.62;6.97;6.30;;;28.30;36.90;;;;;;2253922;61;20607;-56
2021/08/13 08:40:11;0.00;0.00;0.62;0.00;0.00;0.62;6.50;5.90;;;28.40;36.90;;;;;;2253386;61;20364;-58
2021/08/13 08:42:59;0.00;0.00;0.62;0.00;0.00;0.62;7.90;6.33;;;28.40;36.90;;;;;;2253581;61;20359;-59
2021/08/13 08:45:45;0.00;0.00;0.62;0.00;0.00;0.62;7.10;6.40;;;28.50;36.90;;;;;;2253593;61;20368;-58
2021/08/13 08:48:35;0.00;0.00;0.62;0.00;0.00;0.62;6.33;5.73;;;28.50;36.80;;;;;;2253213;61;20367;-54
2021/08/13 08:51:20;0.00;0.00;0.62;0.00;0.00;0.62;7.33;6.23;;;28.60;36.80;;;;;;2253417;61;20414;-56
2021/08/13 08:54:05;0.00;0.00;0.62;0.00;0.00;0.62;6.27;5.63;;;28.60;36.70;;;;;;2253562;61;20360;-58
2021/08/13 08:56:49;0.00;0.00;0.62;0.00;0.00;0.62;6.30;5.70;;;28.70;36.80;;;;;;2253597;61;20363;-58
2021/08/13 08:59:34;0.00;0.00;0.62;0.00;0.00;0.62;7.33;6.60;;;28.70;36.70;;;;;;2253728;61;20628;-57
2021/08/13 09:02:20;0.00;0.00;0.62;0.00;0.00;0.62;6.67;6.07;;;28.70;36.70;;;;;;2253239;61;20383;-59
2021/08/13 09:05:05;0.00;0.00;0.62;0.00;0.00;0.62;7.30;6.60;;;28.80;36.60;;;;;;2253312;61;20359;-57
2021/08/13 09:07:50;0.00;0.00;0.62;0.00;0.00;0.62;8.87;6.60;;;28.80;36.40;;;;;;2253876;61;20799;-56
2021/08/13 09:10:35;0.00;0.00;0.62;0.00;0.00;0.62;8.00;7.20;;;28.80;36.30;;;;;;2253183;61;20403;-58
2021/08/13 09:13:22;0.00;0.00;0.62;0.00;0.00;0.62;7.23;6.37;;;28.90;36.10;;;;;;2253329;61;20748;-52
2021/08/13 09:16:13;0.00;0.00;0.62;0.00;0.00;0.62;9.10;6.17;;;28.90;36.10;;;;;;2253860;61;20351;-55
2021/08/13 09:19:02;0.00;0.00;0.62;0.00;0.00;0.62;7.00;6.30;;;28.90;36.10;;;;;;2253155;61;20414;-56
2021/08/13 09:21:46;0.00;0.00;0.62;0.00;0.00;0.62;6.80;6.20;;;29.00;36.20;;;;;;2253513;61;20462;-57
2021/08/13 09:24:38;0.00;0.00;0.62;0.00;0.00;0.62;6.90;6.30;;;29.00;36.10;;;;;;2253257;61;20400;-58
2021/08/13 09:27:26;0.00;0.00;0.62;0.00;0.00;0.62;6.83;6.23;;;29.00;36.00;;;;;;2253178;61;20423;-54
2021/08/13 09:30:33;0.00;0.00;0.62;0.00;0.00;0.62;8.03;7.23;;;29.10;36.00;;;;;;2256041;61;20743;-58
2021/08/13 09:33:18;0.00;0.00;0.62;0.00;0.00;0.62;7.20;6.50;;;29.10;35.80;;;;;;2255727;61;20395;-57
2021/08/13 09:36:06;0.00;0.00;0.62;0.00;0.00;0.62;8.03;7.23;;;29.10;35.80;;;;;;2256025;61;20384;-58
2021/08/13 09:39:05;0.00;0.00;0.62;0.00;0.00;0.62;8.93;7.20;;;29.20;35.80;;;;;;2253220;61;20379;-56
2021/08/13 09:41:53;0.00;0.00;0.62;0.00;0.00;0.62;7.17;6.50;;;29.20;35.80;;;;;;2253202;61;20380;-55
2021/08/13 09:44:40;0.00;0.00;0.62;0.00;0.00;0.62;7.30;6.63;;;29.30;35.80;;;;;;2253727;61;20356;-58
2021/08/13 09:47:42;0.00;0.00;0.62;0.00;0.00;0.62;8.73;7.93;;;29.30;35.80;;;;;;2253079;61;20768;-57
2021/08/13 09:50:36;0.00;0.00;0.62;0.00;0.00;0.62;8.10;7.30;;;29.30;35.70;;;;;;2255662;61;20504;-57
2021/08/13 09:53:22;0.00;0.00;0.62;0.00;0.00;0.62;7.80;7.10;;;29.40;35.70;;;;;;2253530;61;20356;-57
2021/08/13 09:56:24;0.00;0.00;0.62;0.00;0.00;0.62;8.90;6.77;;;29.40;35.70;;;;;;2253177;61;20395;-56
2021/08/13 09:59:14;0.00;0.00;0.62;0.00;0.00;0.62;6.43;5.83;;;29.40;35.60;;;;;;2253626;61;20383;-56
2021/08/13 10:02:10;0.00;0.00;0.62;0.00;0.00;0.62;7.50;6.90;;;29.50;35.60;;;;;;2255446;61;20375;-59
2021/08/13 10:04:55;0.00;0.00;0.62;0.00;0.00;0.62;10.40;7.30;;;29.50;35.50;;;;;;2253157;61;20411;-53
2021/08/13 10:07:45;0.00;0.00;0.62;0.00;0.00;0.62;7.10;6.40;;;29.50;35.40;;;;;;2253707;61;20589;-59
2021/08/13 10:10:34;0.00;0.00;0.62;0.00;0.00;0.62;7.80;6.97;;;29.60;35.30;;;;;;2252803;61;20367;-57
2021/08/13 10:13:40;0.00;0.00;0.62;0.00;0.00;0.62;6.40;5.80;;;29.60;35.20;;;;;;2256044;61;20356;-58
2021/08/13 10:16:28;0.00;0.00;0.62;0.00;0.00;0.62;7.07;6.47;;;29.70;35.10;;;;;;2255387;61;20570;-58
2021/08/13 10:19:18;0.00;0.00;0.62;0.00;0.00;0.62;7.90;7.10;;;29.70;35.00;;;;;;2255438;61;20355;-56
2021/08/13 10:22:03;0.00;0.00;0.62;0.00;0.00;0.62;8.20;6.80;;;29.70;34.90;;;;;;2255909;61;20419;-59
2021/08/13 10:24:50;0.00;0.00;0.62;0.00;0.00;0.62;10.40;7.67;;;29.80;34.90;;;;;;2255369;61;20569;-55
2021/08/13 10:27:37;0.00;0.00;0.62;0.00;0.00;0.62;7.83;7.03;;;29.80;34.80;;;;;;2255642;61;20632;-59
2021/08/13 10:30:26;0.00;0.00;0.62;0.00;0.00;0.62;6.33;5.73;;;29.80;34.80;;;;;;2255502;61;20464;-57
2021/08/13 10:33:13;0.00;0.00;0.62;0.00;0.00;0.62;7.50;6.80;;;29.90;34.50;;;;;;2256323;61;20402;-56
2021/08/13 10:35:59;0.00;0.00;0.62;0.00;0.00;0.62;7.90;7.00;;;29.90;34.40;;;;;;2253860;61;20639;-57
2021/08/13 10:38:50;0.00;0.00;0.62;0.00;0.00;0.62;6.77;6.07;;;29.90;34.40;;;;;;2255979;61;20368;-58
2021/08/13 10:41:40;0.00;0.00;0.62;0.00;0.00;0.62;7.70;7.00;;;30.00;34.30;;;;;;2256202;61;20383;-54
2021/08/13 10:44:31;0.00;0.00;0.62;0.00;0.00;0.62;7.27;6.60;;;30.00;34.30;;;;;;2256396;61;20395;-57
2021/08/13 10:47:21;0.00;0.00;0.62;0.00;0.00;0.62;7.50;6.80;;;30.00;34.10;;;;;;2256138;61;20383;-53
2021/08/13 10:50:08;0.00;0.00;0.62;0.00;0.00;0.62;7.90;7.20;;;30.00;34.10;;;;;;2256408;61;20399;-56
2021/08/13 10:52:52;0.00;0.00;0.62;0.00;0.00;0.62;9.20;6.17;;;30.10;34.00;;;;;;2253584;61;20396;-56
2021/08/13 10:55:47;0.00;0.00;0.62;0.00;0.00;0.62;6.30;5.63;;;30.10;33.80;;;;;;2256262;61;20419;-55
2021/08/13 10:58:46;0.00;0.00;0.62;0.00;0.00;0.62;6.63;5.93;;;30.10;33.70;;;;;;2256354;61;20367;-55
2021/08/13 11:02:13;0.00;0.00;0.62;0.00;0.00;0.62;6.67;6.07;;;30.20;33.90;;;;;;2255941;61;20399;-52